createdAt,value
2022-08-09T00:00:20.402Z,2.25
2022-08-09T00:02:50.032Z,2.30
2022-08-09T00:06:16.104Z,2.47
2022-08-09T00:08:10.217Z,2.33
2022-08-09T00:10:38.536Z,2.42
2022-08-09T00:13:17.213Z,2.60
2022-08-09T00:15:59.800Z,2.20
2022-08-09T00:18:34.793Z,2.30
2022-08-09T00:21:08.710Z,2.30
2022-08-09T00:23:56.505Z,1.95
2022-08-09T00:26:32.145Z,2.40
2022-08-09T00:29:03.167Z,2.50
2022-08-09T00:31:59.003Z,2.25
2022-08-09T00:34:19.385Z,2.47
2022-08-09T00:36:46.650Z,2.40
2022-08-09T00:40:09.081Z,2.60
2022-08-09T00:44:10.557Z,2.58
2022-08-09T00:44:47.203Z,2.53
2022-08-09T00:47:14.371Z,2.80
2022-08-09T00:49:42.700Z,2.78
2022-08-09T00:52:19.491Z,2.40
2022-08-09T00:54:48.955Z,2.60
2022-08-09T00:57:33.783Z,2.25
2022-08-09T01:00:05.323Z,2.58
2022-08-09T01:03:00.287Z,2.20
2022-08-09T01:05:51.418Z,2.60
2022-08-09T01:08:26.959Z,2.55
2022-08-09T01:11:25.164Z,2.28
2022-08-09T01:14:11.786Z,2.65
2022-08-09T01:16:47.203Z,2.35
2022-08-09T01:19:51.635Z,3.28
2022-08-09T01:22:40.584Z,2.38
2022-08-09T01:25:19.045Z,2.63
2022-08-09T01:27:50.788Z,2.80
2022-08-09T01:30:28.473Z,2.65
2022-08-09T01:33:03.696Z,3.00
2022-08-09T01:35:51.826Z,2.80
2022-08-09T01:38:23.461Z,2.75
2022-08-09T01:41:03.177Z,3.35
2022-08-09T01:43:50.522Z,3.40
2022-08-09T01:46:26.841Z,4.22
2022-08-09T01:48:59.928Z,3.80
2022-08-09T01:51:36.524Z,4.53
2022-08-09T01:54:04.356Z,4.18
2022-08-09T01:56:34.032Z,5.07
2022-08-09T01:59:05.441Z,5.70
2022-08-09T02:01:59.961Z,5.47
2022-08-09T02:04:22.101Z,5.35
2022-08-09T02:07:11.448Z,6.38
2022-08-09T02:09:59.863Z,5.85
2022-08-09T02:12:28.728Z,5.90
2022-08-09T02:14:58.992Z,5.50
2022-08-09T02:17:59.492Z,5.70
2022-08-09T02:20:26.232Z,5.35
2022-08-09T02:23:25.296Z,5.53
2022-08-09T02:25:59.593Z,5.38
2022-08-09T02:28:39.923Z,5.07
2022-08-09T02:31:18.827Z,4.65
2022-08-09T02:34:07.393Z,4.88
2022-08-09T02:36:38.389Z,4.20
2022-08-09T02:39:14.620Z,4.00
2022-08-09T02:42:16.749Z,4.10
2022-08-09T02:44:52.440Z,3.97
2022-08-09T02:47:21.888Z,4.05
2022-08-09T02:49:55.357Z,3.70
2022-08-09T02:52:35.378Z,3.38
2022-08-09T02:55:20.580Z,3.00
2022-08-09T02:58:00.115Z,3.10
2022-08-09T03:00:39.583Z,2.80
2022-08-09T03:03:15.237Z,3.53
2022-08-09T03:06:03.018Z,3.30
2022-08-09T03:08:31.111Z,2.85
2022-08-09T03:11:00.265Z,3.05
2022-08-09T03:13:27.548Z,2.95
2022-08-09T03:16:10.984Z,2.85
2022-08-09T03:18:38.401Z,3.00
2022-08-09T03:21:05.936Z,3.10
2022-08-09T03:23:33.044Z,3.35
2022-08-09T03:26:03.414Z,2.92
2022-08-09T03:28:32.950Z,3.15
2022-08-09T03:31:00.026Z,3.47
2022-08-09T03:33:54.558Z,2.88
2022-08-09T03:36:22.188Z,3.50
2022-08-09T03:38:55.087Z,3.55
2022-08-09T03:41:30.232Z,3.75
2022-08-09T03:44:10.114Z,4.13
2022-08-09T03:46:39.137Z,4.00
2022-08-09T03:49:08.464Z,4.22
2022-08-09T03:51:44.003Z,4.05
2022-08-09T03:54:29.354Z,4.13
2022-08-09T03:57:00.499Z,4.50
2022-08-09T03:59:52.728Z,3.55
2022-08-09T04:02:14.583Z,4.60
2022-08-09T04:04:46.218Z,4.63
2022-08-09T04:07:14.616Z,4.65
2022-08-09T04:09:50.285Z,4.65
2022-08-09T04:12:33.938Z,4.00
2022-08-09T04:15:17.133Z,4.50
2022-08-09T04:17:44.638Z,4.32
2022-08-09T04:20:14.952Z,4.05
2022-08-09T04:22:44.126Z,3.65
2022-08-09T04:25:11.797Z,4.05
2022-08-09T04:27:46.784Z,3.60
2022-08-09T04:30:23.455Z,3.45
2022-08-09T04:32:54.100Z,3.28
2022-08-09T04:35:21.669Z,3.60
2022-08-09T04:37:49.807Z,3.60
2022-08-09T04:40:19.161Z,4.20
2022-08-09T04:42:46.210Z,3.95
2022-08-09T04:45:16.648Z,4.03
2022-08-09T04:48:00.972Z,3.88
2022-08-09T04:50:31.974Z,4.20
2022-08-09T04:53:02.766Z,4.75
2022-08-09T04:55:38.944Z,4.63
2022-08-09T04:58:10.050Z,5.05
2022-08-09T05:00:36.815Z,4.70
2022-08-09T05:03:30.287Z,5.10
2022-08-09T05:06:04.334Z,4.45
2022-08-09T05:08:35.033Z,4.70
2022-08-09T05:11:02.787Z,4.50
2022-08-09T05:13:32.949Z,4.70
2022-08-09T05:16:00.826Z,4.40
2022-08-09T05:18:42.752Z,4.15
2022-08-09T05:21:23.346Z,4.15
2022-08-09T05:23:59.673Z,3.95
2022-08-09T05:26:36.117Z,3.95
2022-08-09T05:29:07.686Z,4.20
2022-08-09T05:31:46.606Z,4.82
2022-08-09T05:34:17.487Z,4.60
2022-08-09T05:36:47.120Z,4.90
2022-08-09T05:39:29.628Z,4.28
2022-08-09T05:42:04.629Z,5.28
2022-08-09T05:44:34.817Z,5.05
2022-08-09T05:47:04.859Z,5.72
2022-08-09T05:50:30.447Z,5.97
2022-08-09T05:52:20.053Z,4.72
2022-08-09T05:54:49.145Z,4.90
2022-08-09T05:57:17.490Z,4.90
2022-08-09T05:59:46.082Z,4.82
2022-08-09T06:02:17.058Z,4.75
2022-08-09T06:04:46.062Z,4.68
2022-08-09T06:07:21.442Z,4.80
2022-08-09T06:10:02.419Z,3.50
2022-08-09T06:12:30.442Z,3.60
2022-08-09T06:15:00.966Z,3.55
2022-08-09T06:17:38.993Z,3.13
2022-08-09T06:20:07.743Z,3.17
2022-08-09T06:22:34.931Z,2.72
2022-08-09T06:25:02.164Z,3.05
2022-08-09T06:27:42.857Z,3.67
2022-08-09T06:30:16.856Z,3.20
2022-08-09T06:33:13.790Z,3.05
2022-08-09T06:35:35.733Z,3.03
2022-08-09T06:38:19.756Z,2.85
2022-08-09T06:40:58.891Z,3.33
2022-08-09T06:43:27.104Z,3.17
2022-08-09T06:46:06.017Z,3.33
2022-08-09T06:48:42.965Z,2.90
2022-08-09T06:51:14.909Z,3.15
2022-08-09T06:53:43.570Z,3.72
2022-08-09T06:56:10.751Z,2.53
2022-08-09T07:00:51.425Z,3.63
2022-08-09T07:01:27.646Z,2.95
2022-08-09T07:04:12.110Z,3.00
2022-08-09T07:06:47.101Z,3.33
2022-08-09T07:09:55.013Z,3.42
2022-08-09T07:12:06.925Z,2.53
2022-08-09T07:14:40.828Z,2.97
2022-08-09T07:17:08.244Z,2.88
2022-08-09T07:19:35.524Z,2.70
2022-08-09T07:22:02.279Z,2.78
2022-08-09T07:24:40.176Z,3.22
2022-08-09T07:27:26.993Z,2.80
2022-08-09T07:29:59.314Z,2.92
2022-08-09T07:32:33.696Z,2.88
2022-08-09T07:35:08.245Z,2.95
2022-08-09T07:37:45.681Z,3.13
2022-08-09T07:40:18.694Z,2.88
2022-08-09T07:42:54.548Z,2.80
2022-08-09T07:45:39.645Z,2.40
2022-08-09T07:48:25.243Z,2.50
2022-08-09T07:51:09.207Z,2.10
2022-08-09T07:54:07.186Z,2.58
2022-08-09T07:56:36.986Z,2.67
2022-08-09T07:59:16.103Z,2.45
2022-08-09T08:01:53.952Z,3.40
2022-08-09T08:04:20.818Z,2.88
2022-08-09T08:07:00.371Z,2.60
2022-08-09T08:09:51.737Z,2.05
2022-08-09T08:12:27.583Z,2.50
2022-08-09T08:15:01.313Z,2.30
2022-08-09T08:17:52.588Z,2.75
2022-08-09T08:20:15.074Z,2.33
2022-08-09T08:22:41.839Z,2.67
2022-08-09T08:25:13.628Z,2.28
2022-08-09T08:27:42.864Z,1.92
2022-08-09T08:30:11.448Z,1.98
2022-08-09T08:32:41.537Z,2.20
2022-08-09T08:35:19.989Z,1.80
2022-08-09T08:38:04.485Z,1.98
2022-08-09T08:40:36.930Z,2.17
2022-08-09T08:43:08.972Z,2.03
2022-08-09T08:45:53.447Z,2.30
2022-08-09T08:48:31.231Z,2.00
2022-08-09T08:50:58.829Z,2.20
2022-08-09T08:53:35.653Z,1.80
2022-08-09T08:56:04.888Z,1.80
2022-08-09T08:58:33.158Z,1.73
2022-08-09T09:01:08.690Z,1.95
2022-08-09T09:03:37.769Z,1.80
2022-08-09T09:06:05.922Z,1.55
2022-08-09T09:08:37.919Z,1.60
2022-08-09T09:11:08.498Z,1.58
2022-08-09T09:13:55.407Z,1.33
2022-08-09T09:16:30.195Z,1.65
2022-08-09T09:19:37.044Z,1.80
2022-08-09T09:21:56.592Z,1.80
2022-08-09T09:24:29.361Z,1.60
2022-08-09T09:26:57.425Z,1.88
2022-08-09T09:30:09.383Z,1.48
2022-08-09T09:32:35.193Z,1.88
2022-08-09T09:35:09.539Z,2.10
2022-08-09T09:37:40.253Z,1.27
2022-08-09T09:40:09.305Z,1.80
2022-08-09T09:42:36.421Z,1.73
2022-08-09T09:45:08.387Z,1.58
2022-08-09T09:47:47.612Z,1.88
2022-08-09T09:50:17.458Z,1.75
2022-08-09T09:52:53.974Z,1.58
2022-08-09T09:55:28.590Z,1.65
2022-08-09T09:58:17.405Z,1.70
2022-08-09T10:00:52.959Z,2.05
2022-08-09T10:03:56.251Z,1.60
2022-08-09T10:06:25.691Z,2.05
2022-08-09T10:08:59.517Z,1.70
2022-08-09T10:12:00.015Z,1.85
2022-08-09T10:14:31.003Z,1.67
2022-08-09T10:17:40.241Z,1.80
2022-08-09T10:19:59.947Z,1.88
2022-08-09T10:22:34.676Z,1.80
2022-08-09T10:25:11.658Z,1.88
2022-08-09T10:27:57.358Z,2.13
2022-08-09T10:34:07.636Z,2.00
2022-08-09T10:36:03.223Z,1.95
2022-08-09T10:38:55.465Z,1.60
2022-08-09T10:41:20.684Z,1.65
2022-08-09T10:44:01.119Z,1.85
2022-08-09T10:46:55.193Z,1.90
2022-08-09T10:49:50.949Z,1.80
2022-08-09T10:52:55.723Z,2.00
2022-08-09T10:55:24.291Z,1.65
2022-08-09T10:57:52.377Z,1.80
2022-08-09T11:00:29.030Z,1.70
2022-08-09T11:03:15.454Z,1.50
2022-08-09T11:06:15.423Z,1.75
2022-08-09T11:08:47.171Z,1.60
2022-08-09T11:11:16.436Z,1.45
2022-08-09T11:13:50.085Z,1.60
2022-08-09T11:16:38.076Z,1.60
2022-08-09T11:19:09.750Z,1.95
2022-08-09T11:22:10.708Z,1.70
2022-08-09T11:25:03.499Z,1.70
2022-08-09T11:28:05.486Z,1.88
2022-08-09T11:30:34.366Z,1.73
2022-08-09T11:33:19.708Z,1.60
2022-08-09T11:35:53.526Z,1.70
2022-08-09T11:38:32.292Z,1.55
2022-08-09T11:41:13.830Z,1.80
2022-08-09T11:43:47.243Z,1.60
2022-08-09T11:46:26.738Z,1.63
2022-08-09T11:49:05.222Z,1.35
2022-08-09T11:53:03.730Z,1.40
2022-08-09T11:55:34.953Z,1.83
2022-08-09T11:58:14.744Z,1.50
2022-08-09T12:00:55.589Z,1.50
2022-08-09T12:03:54.724Z,1.70
2022-08-09T12:06:16.307Z,1.20
2022-08-09T12:08:47.551Z,1.60
2022-08-09T12:11:19.493Z,1.50
2022-08-09T12:14:08.409Z,1.50
2022-08-09T12:16:41.042Z,1.40
2022-08-09T12:19:11.354Z,1.38
2022-08-09T12:21:48.492Z,1.90
2022-08-09T12:24:24.001Z,1.30
2022-08-09T12:28:58.371Z,1.30
2022-08-09T12:30:36.287Z,1.70
2022-08-09T12:33:01.621Z,1.45
2022-08-09T12:35:28.414Z,1.42
2022-08-09T12:37:56.454Z,1.50
2022-08-09T12:40:28.646Z,1.60
2022-08-09T12:42:57.161Z,1.70
2022-08-09T12:45:34.734Z,1.38
2022-08-09T12:48:10.995Z,1.45
2022-08-09T12:50:47.979Z,1.40
2022-08-09T12:53:32.171Z,1.58
2022-08-09T12:56:40.125Z,1.75
2022-08-09T12:59:16.157Z,1.75
2022-08-09T13:01:49.642Z,1.50
2022-08-09T13:04:37.070Z,1.63
2022-08-09T13:07:16.903Z,1.58
2022-08-09T13:09:55.562Z,1.48
2022-08-09T13:12:28.271Z,1.40
2022-08-09T13:15:04.813Z,1.60
2022-08-09T13:18:02.897Z,1.50
2022-08-09T13:21:03.882Z,1.40
2022-08-09T13:24:41.960Z,1.70
2022-08-09T13:26:49.704Z,1.48
2022-08-09T13:29:19.538Z,1.20
2022-08-09T13:32:13.879Z,1.83
2022-08-09T13:34:42.335Z,1.40
2022-08-09T13:37:09.236Z,1.33
2022-08-09T13:41:52.560Z,1.77
2022-08-09T13:42:26.738Z,1.17
2022-08-09T13:44:53.779Z,1.40
2022-08-09T13:47:33.044Z,1.58
2022-08-09T13:50:30.006Z,1.40
2022-08-09T13:52:58.567Z,1.60
2022-08-09T13:55:28.916Z,1.60
2022-08-09T13:57:58.352Z,1.63
2022-08-09T14:00:29.173Z,1.80
2022-08-09T14:03:03.042Z,2.22
2022-08-09T14:05:58.432Z,1.60
2022-08-09T14:08:18.470Z,1.65
2022-08-09T14:10:50.488Z,1.65
2022-08-09T14:14:14.877Z,1.30
2022-08-09T14:16:11.474Z,1.30
2022-08-09T14:18:45.061Z,1.27
2022-08-09T14:21:17.891Z,1.35
2022-08-09T14:23:53.868Z,1.40
2022-08-09T14:26:32.656Z,1.17
2022-08-09T14:29:03.542Z,1.33
2022-08-09T14:31:50.306Z,1.23
2022-08-09T14:34:27.558Z,1.77
2022-08-09T14:37:07.745Z,1.50
2022-08-09T14:39:40.472Z,1.33
2022-08-09T14:42:39.302Z,1.42
2022-08-09T14:47:00.824Z,1.25
2022-08-09T14:47:59.204Z,1.40
2022-08-09T14:50:28.882Z,1.33
2022-08-09T14:52:55.641Z,1.50
2022-08-09T14:55:22.505Z,1.27
2022-08-09T14:57:49.668Z,1.00
2022-08-09T15:00:17.350Z,1.42
2022-08-09T15:02:47.137Z,1.42
2022-08-09T15:05:16.869Z,1.20
2022-08-09T15:07:45.604Z,1.20
2022-08-09T15:10:26.500Z,1.30
2022-08-09T15:12:57.076Z,1.42
2022-08-09T15:15:24.856Z,1.10
2022-08-09T15:17:55.939Z,1.17
2022-08-09T15:21:57.379Z,1.23
2022-08-09T15:24:02.744Z,1.30
2022-08-09T15:25:59.987Z,1.40
2022-08-09T15:28:27.968Z,1.10
2022-08-09T15:31:08.601Z,1.38
2022-08-09T15:34:04.364Z,1.20
2022-08-09T15:36:28.817Z,1.20
2022-08-09T15:39:00.055Z,1.27
2022-08-09T15:41:31.811Z,1.50
2022-08-09T15:44:01.715Z,1.20
2022-08-09T15:46:34.423Z,1.70
2022-08-09T15:49:22.658Z,1.13
2022-08-09T15:52:05.062Z,1.30
2022-08-09T15:54:48.925Z,1.48
2022-08-09T15:57:19.171Z,1.27
2022-08-09T16:00:14.657Z,1.30
2022-08-09T16:02:48.016Z,1.30
2022-08-09T16:05:22.113Z,1.48
2022-08-09T16:07:50.544Z,6.30
2022-08-09T16:10:54.966Z,33.28
2022-08-09T16:13:21.047Z,13.65
2022-08-09T16:16:11.314Z,6.68
2022-08-09T16:18:44.987Z,1.50
2022-08-09T16:21:17.273Z,2.10
2022-08-09T16:23:55.522Z,1.27
2022-08-09T16:26:34.435Z,1.17
2022-08-09T16:29:10.468Z,1.50
2022-08-09T16:32:19.941Z,1.38
2022-08-09T16:34:54.961Z,1.20
2022-08-09T16:37:54.604Z,1.27
2022-08-09T16:40:09.100Z,4.40
2022-08-09T16:42:36.620Z,1.20
2022-08-09T16:45:05.532Z,1.40
2022-08-09T16:48:38.161Z,1.30
2022-08-09T16:50:30.074Z,1.40
2022-08-09T16:53:00.122Z,1.27
2022-08-09T16:55:27.470Z,1.20
2022-08-09T16:58:12.107Z,1.35
2022-08-09T17:00:42.835Z,1.20
2022-08-09T17:03:20.930Z,1.30
2022-08-09T17:06:08.008Z,1.30
2022-08-09T17:08:43.524Z,1.02
2022-08-09T17:11:41.137Z,1.20
2022-08-09T17:14:26.738Z,1.10
2022-08-09T17:17:01.974Z,1.05
2022-08-09T17:19:47.185Z,1.10
2022-08-09T17:22:25.006Z,1.20
2022-08-09T17:25:10.002Z,1.10
2022-08-09T17:27:40.029Z,1.30
2022-08-09T17:30:16.702Z,1.30
2022-08-09T17:32:45.397Z,1.20
2022-08-09T17:35:14.214Z,1.25
2022-08-09T17:38:02.722Z,1.00
2022-08-09T17:40:29.836Z,1.30
2022-08-09T17:42:59.500Z,1.25
2022-08-09T17:45:37.613Z,0.98
2022-08-09T17:48:17.443Z,1.48
2022-08-09T17:50:55.968Z,1.30
2022-08-09T17:53:23.499Z,1.10
2022-08-09T17:55:55.735Z,1.23
2022-08-09T17:58:27.387Z,1.30
2022-08-09T18:00:56.701Z,1.38
2022-08-09T18:03:25.995Z,1.55
2022-08-09T18:05:56.252Z,2.00
2022-08-09T18:08:27.402Z,1.90
2022-08-09T18:11:01.947Z,1.95
2022-08-09T18:13:39.162Z,2.30
2022-08-09T18:16:29.442Z,2.20
2022-08-09T18:18:58.227Z,2.63
2022-08-09T18:21:40.955Z,2.10
2022-08-09T18:24:14.422Z,1.95
2022-08-09T18:26:46.847Z,1.80
2022-08-09T18:30:39.883Z,1.63
2022-08-09T18:32:05.905Z,2.10
2022-08-09T18:34:35.684Z,2.00
2022-08-09T18:37:10.555Z,1.60
2022-08-09T18:39:53.873Z,1.80
2022-08-09T18:42:21.208Z,1.60
2022-08-09T18:44:56.242Z,1.23
2022-08-09T18:47:24.369Z,1.40
2022-08-09T18:49:54.553Z,1.50
2022-08-09T18:52:34.546Z,1.30
2022-08-09T18:55:02.373Z,1.10
2022-08-09T18:57:38.563Z,1.40
2022-08-09T19:00:11.498Z,1.20
2022-08-09T19:02:43.829Z,1.20
2022-08-09T19:05:14.518Z,1.33
2022-08-09T19:08:04.319Z,1.42
2022-08-09T19:10:37.341Z,1.30
2022-08-09T19:13:22.301Z,1.27
2022-08-09T19:15:51.759Z,1.38
2022-08-09T19:18:33.232Z,1.35
2022-08-09T19:21:05.266Z,1.42
2022-08-09T19:24:37.355Z,1.10
2022-08-09T19:26:19.531Z,1.63
2022-08-09T19:28:57.274Z,1.40
2022-08-09T19:31:30.769Z,1.35
2022-08-09T19:34:21.302Z,1.30
2022-08-09T19:36:50.589Z,1.30
2022-08-09T19:39:17.650Z,1.42
2022-08-09T19:41:48.297Z,1.27
2022-08-09T19:44:17.771Z,1.00
2022-08-09T19:46:50.536Z,1.23
2022-08-09T19:50:07.709Z,1.40
2022-08-09T19:52:08.298Z,1.33
2022-08-09T19:54:35.759Z,1.50
2022-08-09T19:57:03.806Z,1.40
2022-08-09T19:59:59.694Z,1.42
2022-08-09T20:04:12.665Z,1.40
2022-08-09T20:05:11.393Z,1.38
2022-08-09T20:07:59.693Z,1.20
2022-08-09T20:10:34.406Z,1.40
2022-08-09T20:13:05.120Z,2.28
2022-08-09T20:16:34.393Z,1.52
2022-08-09T20:18:19.696Z,1.50
2022-08-09T20:20:47.318Z,1.50
2022-08-09T20:23:19.133Z,1.30
2022-08-09T20:25:53.555Z,1.25
2022-08-09T20:28:24.463Z,3.80
2022-08-09T20:31:02.870Z,1.80
2022-08-09T20:33:40.988Z,1.50
2022-08-09T20:36:11.130Z,1.30
2022-08-09T20:39:17.138Z,1.30
2022-08-09T20:41:32.262Z,3.47
2022-08-09T20:44:05.186Z,2.65
2022-08-09T20:46:43.092Z,1.63
2022-08-09T20:49:16.005Z,1.33
2022-08-09T20:51:44.333Z,1.60
2022-08-09T20:54:16.463Z,1.30
2022-08-09T20:56:47.252Z,1.70
2022-08-09T21:00:19.108Z,3.00
2022-08-09T21:02:05.012Z,2.83
2022-08-09T21:05:53.137Z,1.83
2022-08-09T21:07:18.545Z,1.40
2022-08-09T21:09:56.365Z,1.45
2022-08-09T21:15:15.037Z,1.60
2022-08-09T21:18:11.415Z,1.42
2022-08-09T21:20:35.495Z,1.42
2022-08-09T21:23:02.819Z,1.30
2022-08-09T21:25:56.345Z,1.80
2022-08-09T21:28:36.058Z,1.30
2022-08-09T21:31:16.782Z,1.17
2022-08-09T21:33:53.023Z,1.60
2022-08-09T21:36:25.927Z,1.48
2022-08-09T21:38:57.782Z,1.50
2022-08-09T21:42:04.301Z,1.35
2022-08-09T21:44:33.025Z,1.48
2022-08-09T21:47:02.935Z,1.35
2022-08-09T21:49:39.882Z,1.48
2022-08-09T21:52:14.791Z,1.05
2022-08-09T21:54:59.554Z,1.17
2022-08-09T21:57:38.665Z,1.30
2022-08-09T22:00:25.845Z,1.40
2022-08-09T22:02:58.138Z,1.33
2022-08-09T22:05:35.572Z,1.58
2022-08-09T22:08:13.023Z,1.40
2022-08-09T22:11:05.175Z,1.30
2022-08-09T22:13:34.113Z,1.50
2022-08-09T22:16:01.073Z,1.48
2022-08-09T22:18:32.710Z,1.35
2022-08-09T22:21:00.591Z,1.35
2022-08-09T22:23:35.108Z,1.27
2022-08-09T22:26:05.462Z,1.38
2022-08-09T22:28:47.194Z,1.60
2022-08-09T22:31:20.945Z,1.55
2022-08-09T22:33:48.839Z,1.20
2022-08-09T22:36:19.336Z,1.38
2022-08-09T22:38:46.539Z,1.40
2022-08-09T22:41:13.306Z,1.45
2022-08-09T22:44:02.190Z,1.38
2022-08-09T22:48:16.185Z,1.65
2022-08-09T22:49:13.741Z,1.40
2022-08-09T22:51:49.570Z,1.60
2022-08-09T22:54:23.132Z,1.35
2022-08-09T22:56:56.808Z,1.52
2022-08-09T22:59:57.733Z,1.40
2022-08-09T23:02:11.198Z,1.50
2022-08-09T23:04:53.607Z,2.40
2022-08-09T23:08:22.959Z,1.33
2022-08-09T23:10:27.776Z,1.65
2022-08-09T23:12:54.476Z,1.85
2022-08-09T23:15:21.241Z,1.48
2022-08-09T23:17:47.810Z,1.52
2022-08-09T23:20:14.547Z,1.40
2022-08-09T23:22:41.260Z,1.45
2022-08-09T23:25:08.312Z,1.40
2022-08-09T23:27:35.357Z,1.38
2022-08-09T23:30:02.305Z,1.65
2022-08-09T23:32:29.009Z,1.30
2022-08-09T23:34:55.759Z,1.67
2022-08-09T23:37:22.896Z,1.52
2022-08-09T23:39:58.650Z,1.60
2022-08-09T23:42:26.437Z,1.50
2022-08-09T23:44:53.257Z,1.50
2022-08-09T23:47:20.019Z,1.58
2022-08-09T23:49:46.736Z,1.80
2022-08-09T23:52:13.461Z,1.80
2022-08-09T23:54:42.902Z,2.10
2022-08-09T23:57:12.302Z,2.45
